Aviation Digital Data Service (ADDS)

Output produced by TAFs form (2029 UTC 24 October 2014)
found at http://aviationweather.gov/adds/tafs/
 
KMTJ 241724Z 2418/2518 VRB04KT P6SM SKC 
     FM242000 34006KT P6SM SKC 
     FM250200 14008KT P6SM SKC